sensor_id;sensor_type;location;lat;lon;timestamp;temperature;humidity
2873;DHT22;1444;49.166;7.312;2023-03-29T00:00:07;8.00;96.80
2873;DHT22;1444;49.166;7.312;2023-03-29T00:02:38;8.00;96.70
2873;DHT22;1444;49.166;7.312;2023-03-29T00:05:06;8.10;96.40
2873;DHT22;1444;49.166;7.312;2023-03-29T00:07:33;8.10;96.40
2873;DHT22;1444;49.166;7.312;2023-03-29T00:10:01;8.10;96.60
2873;DHT22;1444;49.166;7.312;2023-03-29T00:12:29;8.20;96.30
2873;DHT22;1444;49.166;7.312;2023-03-29T00:14:57;8.20;96.00
2873;DHT22;1444;49.166;7.312;2023-03-29T00:17:23;8.20;96.10
2873;DHT22;1444;49.166;7.312;2023-03-29T00:19:50;8.20;96.60
2873;DHT22;1444;49.166;7.312;2023-03-29T00:22:17;8.20;96.80
2873;DHT22;1444;49.166;7.312;2023-03-29T00:24:44;8.30;96.50
2873;DHT22;1444;49.166;7.312;2023-03-29T00:27:12;8.30;96.20
2873;DHT22;1444;49.166;7.312;2023-03-29T00:29:39;8.30;96.10
2873;DHT22;1444;49.166;7.312;2023-03-29T00:32:07;8.40;96.00
2873;DHT22;1444;49.166;7.312;2023-03-29T00:34:33;8.50;96.00
2873;DHT22;1444;49.166;7.312;2023-03-29T00:37:01;8.60;96.00
2873;DHT22;1444;49.166;7.312;2023-03-29T00:39:29;8.60;96.00
2873;DHT22;1444;49.166;7.312;2023-03-29T00:41:56;8.60;96.30
2873;DHT22;1444;49.166;7.312;2023-03-29T00:44:54;8.60;96.10
2873;DHT22;1444;49.166;7.312;2023-03-29T00:47:25;8.60;96.30
2873;DHT22;1444;49.166;7.312;2023-03-29T00:49:53;8.60;96.50
2873;DHT22;1444;49.166;7.312;2023-03-29T00:52:22;8.50;96.10
2873;DHT22;1444;49.166;7.312;2023-03-29T00:54:57;8.50;96.00
2873;DHT22;1444;49.166;7.312;2023-03-29T00:57:25;8.50;96.20
2873;DHT22;1444;49.166;7.312;2023-03-29T00:59:54;8.60;96.10
2873;DHT22;1444;49.166;7.312;2023-03-29T01:02:23;8.60;96.40
2873;DHT22;1444;49.166;7.312;2023-03-29T01:04:54;8.70;96.20
2873;DHT22;1444;49.166;7.312;2023-03-29T01:07:26;8.70;96.20
2873;DHT22;1444;49.166;7.312;2023-03-29T01:09:59;8.60;96.60
2873;DHT22;1444;49.166;7.312;2023-03-29T01:12:30;8.60;96.70
2873;DHT22;1444;49.166;7.312;2023-03-29T01:15:03;8.70;96.50
2873;DHT22;1444;49.166;7.312;2023-03-29T01:17:33;8.70;96.40
2873;DHT22;1444;49.166;7.312;2023-03-29T01:20:03;8.80;96.40
2873;DHT22;1444;49.166;7.312;2023-03-29T01:22:46;8.70;96.60
2873;DHT22;1444;49.166;7.312;2023-03-29T01:25:20;8.50;96.80
2873;DHT22;1444;49.166;7.312;2023-03-29T01:27:53;8.40;97.00
2873;DHT22;1444;49.166;7.312;2023-03-29T01:30:25;8.50;96.80
2873;DHT22;1444;49.166;7.312;2023-03-29T01:32:56;8.50;96.60
2873;DHT22;1444;49.166;7.312;2023-03-29T01:35:28;8.10;97.00
2873;DHT22;1444;49.166;7.312;2023-03-29T01:38:01;7.90;97.00
2873;DHT22;1444;49.166;7.312;2023-03-29T01:40:31;7.80;97.10
2873;DHT22;1444;49.166;7.312;2023-03-29T01:43:05;7.90;96.90
2873;DHT22;1444;49.166;7.312;2023-03-29T01:45:40;7.80;96.80
2873;DHT22;1444;49.166;7.312;2023-03-29T01:48:14;7.70;97.00
2873;DHT22;1444;49.166;7.312;2023-03-29T01:50:45;7.80;97.00
2873;DHT22;1444;49.166;7.312;2023-03-29T01:53:16;7.70;96.60
2873;DHT22;1444;49.166;7.312;2023-03-29T01:55:46;7.60;97.10
2873;DHT22;1444;49.166;7.312;2023-03-29T01:58:18;7.40;97.10
2873;DHT22;1444;49.166;7.312;2023-03-29T02:00:47;7.40;97.00
2873;DHT22;1444;49.166;7.312;2023-03-29T02:03:15;7.50;96.70
2873;DHT22;1444;49.166;7.312;2023-03-29T02:05:44;7.50;96.40
2873;DHT22;1444;49.166;7.312;2023-03-29T02:08:12;7.50;96.50
2873;DHT22;1444;49.166;7.312;2023-03-29T02:10:40;7.50;96.70
2873;DHT22;1444;49.166;7.312;2023-03-29T02:13:07;7.50;96.60
2873;DHT22;1444;49.166;7.312;2023-03-29T02:15:35;8.30;96.90
2873;DHT22;1444;49.166;7.312;2023-03-29T02:18:01;7.60;96.50
2873;DHT22;1444;49.166;7.312;2023-03-29T02:20:32;7.60;96.30
2873;DHT22;1444;49.166;7.312;2023-03-29T02:23:03;7.60;96.10
2873;DHT22;1444;49.166;7.312;2023-03-29T02:25:33;7.50;95.80
2873;DHT22;1444;49.166;7.312;2023-03-29T02:28:02;7.40;95.80
2873;DHT22;1444;49.166;7.312;2023-03-29T02:30:45;7.40;95.60
2873;DHT22;1444;49.166;7.312;2023-03-29T02:33:17;7.30;95.60
2873;DHT22;1444;49.166;7.312;2023-03-29T02:35:51;7.30;95.40
2873;DHT22;1444;49.166;7.312;2023-03-29T02:38:19;7.20;95.60
2873;DHT22;1444;49.166;7.312;2023-03-29T02:40:46;7.20;95.80
2873;DHT22;1444;49.166;7.312;2023-03-29T02:43:14;7.20;95.80
2873;DHT22;1444;49.166;7.312;2023-03-29T02:45:43;7.10;95.80
2873;DHT22;1444;49.166;7.312;2023-03-29T02:48:13;7.10;95.90
2873;DHT22;1444;49.166;7.312;2023-03-29T02:53:14;6.90;96.30
2873;DHT22;1444;49.166;7.312;2023-03-29T02:55:42;6.80;96.40
2873;DHT22;1444;49.166;7.312;2023-03-29T02:58:10;6.80;96.20
2873;DHT22;1444;49.166;7.312;2023-03-29T03:00:41;6.80;96.10
2873;DHT22;1444;49.166;7.312;2023-03-29T03:03:11;6.80;96.00
2873;DHT22;1444;49.166;7.312;2023-03-29T03:05:40;6.80;95.90
2873;DHT22;1444;49.166;7.312;2023-03-29T03:08:07;6.80;96.00
2873;DHT22;1444;49.166;7.312;2023-03-29T03:10:34;6.80;96.10
2873;DHT22;1444;49.166;7.312;2023-03-29T03:13:01;6.80;96.00
2873;DHT22;1444;49.166;7.312;2023-03-29T03:15:28;6.80;95.90
2873;DHT22;1444;49.166;7.312;2023-03-29T03:17:55;6.80;95.80
2873;DHT22;1444;49.166;7.312;2023-03-29T03:20:23;6.80;95.60
2873;DHT22;1444;49.166;7.312;2023-03-29T03:22:50;6.70;95.60
2873;DHT22;1444;49.166;7.312;2023-03-29T03:25:18;6.60;95.50
2873;DHT22;1444;49.166;7.312;2023-03-29T03:27:45;6.50;95.70
2873;DHT22;1444;49.166;7.312;2023-03-29T03:30:13;6.50;95.80
2873;DHT22;1444;49.166;7.312;2023-03-29T03:32:40;6.60;95.80
2873;DHT22;1444;49.166;7.312;2023-03-29T03:35:08;6.50;95.80
2873;DHT22;1444;49.166;7.312;2023-03-29T03:37:38;6.60;95.90
2873;DHT22;1444;49.166;7.312;2023-03-29T03:42:36;6.60;95.70
2873;DHT22;1444;49.166;7.312;2023-03-29T03:45:04;6.60;95.70
2873;DHT22;1444;49.166;7.312;2023-03-29T03:47:33;6.60;95.50
2873;DHT22;1444;49.166;7.312;2023-03-29T03:49:59;6.60;95.40
2873;DHT22;1444;49.166;7.312;2023-03-29T03:52:26;6.60;95.30
2873;DHT22;1444;49.166;7.312;2023-03-29T03:54:54;6.60;95.40
2873;DHT22;1444;49.166;7.312;2023-03-29T03:57:20;6.60;95.50
2873;DHT22;1444;49.166;7.312;2023-03-29T03:59:48;6.60;95.70
2873;DHT22;1444;49.166;7.312;2023-03-29T04:02:15;6.60;95.80
2873;DHT22;1444;49.166;7.312;2023-03-29T04:04:42;6.60;95.80
2873;DHT22;1444;49.166;7.312;2023-03-29T04:07:44;6.60;95.80
2873;DHT22;1444;49.166;7.312;2023-03-29T04:10:13;6.60;95.80
2873;DHT22;1444;49.166;7.312;2023-03-29T04:12:40;6.60;95.90
2873;DHT22;1444;49.166;7.312;2023-03-29T04:15:07;6.50;95.90
2873;DHT22;1444;49.166;7.312;2023-03-29T04:17:34;6.50;95.90
2873;DHT22;1444;49.166;7.312;2023-03-29T04:20:01;6.20;95.90
2873;DHT22;1444;49.166;7.312;2023-03-29T04:22:34;6.20;96.40
2873;DHT22;1444;49.166;7.312;2023-03-29T04:25:01;6.10;96.50
2873;DHT22;1444;49.166;7.312;2023-03-29T04:27:29;6.20;96.50
2873;DHT22;1444;49.166;7.312;2023-03-29T04:29:56;6.30;96.40
2873;DHT22;1444;49.166;7.312;2023-03-29T04:32:22;6.30;96.30
2873;DHT22;1444;49.166;7.312;2023-03-29T04:34:49;6.30;96.20
2873;DHT22;1444;49.166;7.312;2023-03-29T04:37:16;6.20;96.20
2873;DHT22;1444;49.166;7.312;2023-03-29T04:39:47;6.30;96.40
2873;DHT22;1444;49.166;7.312;2023-03-29T04:42:14;6.30;96.40
2873;DHT22;1444;49.166;7.312;2023-03-29T04:44:42;6.40;96.50
2873;DHT22;1444;49.166;7.312;2023-03-29T04:47:08;6.40;96.50
2873;DHT22;1444;49.166;7.312;2023-03-29T04:49:37;6.50;96.50
2873;DHT22;1444;49.166;7.312;2023-03-29T04:52:04;6.50;96.70
2873;DHT22;1444;49.166;7.312;2023-03-29T04:54:31;6.60;96.60
2873;DHT22;1444;49.166;7.312;2023-03-29T04:56:57;6.60;96.60
2873;DHT22;1444;49.166;7.312;2023-03-29T04:59:24;6.70;96.70
2873;DHT22;1444;49.166;7.312;2023-03-29T05:01:52;6.70;96.70
2873;DHT22;1444;49.166;7.312;2023-03-29T05:04:19;6.70;96.70
2873;DHT22;1444;49.166;7.312;2023-03-29T05:06:45;6.70;97.00
2873;DHT22;1444;49.166;7.312;2023-03-29T05:09:13;6.70;96.80
2873;DHT22;1444;49.166;7.312;2023-03-29T05:11:40;6.70;96.90
2873;DHT22;1444;49.166;7.312;2023-03-29T05:14:06;6.80;97.30
2873;DHT22;1444;49.166;7.312;2023-03-29T05:16:33;6.80;97.20
2873;DHT22;1444;49.166;7.312;2023-03-29T05:19:03;6.90;97.00
2873;DHT22;1444;49.166;7.312;2023-03-29T05:21:30;7.00;97.30
2873;DHT22;1444;49.166;7.312;2023-03-29T05:23:57;7.00;97.50
2873;DHT22;1444;49.166;7.312;2023-03-29T05:26:24;7.10;97.80
2873;DHT22;1444;49.166;7.312;2023-03-29T05:28:52;7.20;97.90
2873;DHT22;1444;49.166;7.312;2023-03-29T05:31:19;7.20;97.60
2873;DHT22;1444;49.166;7.312;2023-03-29T05:33:46;7.20;98.00
2873;DHT22;1444;49.166;7.312;2023-03-29T05:36:16;7.30;98.10
2873;DHT22;1444;49.166;7.312;2023-03-29T05:38:44;7.40;98.30
2873;DHT22;1444;49.166;7.312;2023-03-29T05:41:11;7.50;98.00
2873;DHT22;1444;49.166;7.312;2023-03-29T05:43:38;7.50;98.40
2873;DHT22;1444;49.166;7.312;2023-03-29T05:46:05;7.50;98.30
2873;DHT22;1444;49.166;7.312;2023-03-29T05:48:31;7.70;98.10
2873;DHT22;1444;49.166;7.312;2023-03-29T05:50:58;7.70;98.00
2873;DHT22;1444;49.166;7.312;2023-03-29T05:53:27;7.90;98.00
2873;DHT22;1444;49.166;7.312;2023-03-29T05:55:54;7.90;97.90
2873;DHT22;1444;49.166;7.312;2023-03-29T05:58:21;7.90;99.10
2873;DHT22;1444;49.166;7.312;2023-03-29T06:00:50;8.00;98.70
2873;DHT22;1444;49.166;7.312;2023-03-29T06:03:19;8.10;99.10
2873;DHT22;1444;49.166;7.312;2023-03-29T06:05:49;8.10;98.30
2873;DHT22;1444;49.166;7.312;2023-03-29T06:08:21;8.10;98.60
2873;DHT22;1444;49.166;7.312;2023-03-29T06:10:49;8.20;98.70
2873;DHT22;1444;49.166;7.312;2023-03-29T06:13:16;9.70;99.60
2873;DHT22;1444;49.166;7.312;2023-03-29T06:15:42;8.30;99.10
2873;DHT22;1444;49.166;7.312;2023-03-29T06:18:09;8.40;99.60
2873;DHT22;1444;49.166;7.312;2023-03-29T06:20:36;8.40;99.60
2873;DHT22;1444;49.166;7.312;2023-03-29T06:23:02;8.20;99.20
2873;DHT22;1444;49.166;7.312;2023-03-29T06:25:29;8.50;99.60
2873;DHT22;1444;49.166;7.312;2023-03-29T06:27:57;8.60;99.90
2873;DHT22;1444;49.166;7.312;2023-03-29T06:30:24;8.60;99.90
2873;DHT22;1444;49.166;7.312;2023-03-29T06:32:50;8.70;99.90
2873;DHT22;1444;49.166;7.312;2023-03-29T06:35:17;8.80;99.90
2873;DHT22;1444;49.166;7.312;2023-03-29T06:37:45;8.80;99.90
2873;DHT22;1444;49.166;7.312;2023-03-29T06:40:15;8.80;99.90
2873;DHT22;1444;49.166;7.312;2023-03-29T06:42:43;8.80;99.90
2873;DHT22;1444;49.166;7.312;2023-03-29T06:45:12;9.00;99.90
2873;DHT22;1444;49.166;7.312;2023-03-29T06:47:39;9.00;99.90
2873;DHT22;1444;49.166;7.312;2023-03-29T06:50:07;9.10;99.90
2873;DHT22;1444;49.166;7.312;2023-03-29T06:52:34;9.20;99.70
2873;DHT22;1444;49.166;7.312;2023-03-29T06:55:01;9.20;99.80
2873;DHT22;1444;49.166;7.312;2023-03-29T06:57:31;9.30;99.20
2873;DHT22;1444;49.166;7.312;2023-03-29T06:59:58;9.30;99.10
2873;DHT22;1444;49.166;7.312;2023-03-29T07:02:26;9.40;99.20
2873;DHT22;1444;49.166;7.312;2023-03-29T07:04:53;9.60;98.90
2873;DHT22;1444;49.166;7.312;2023-03-29T07:07:20;9.60;99.20
2873;DHT22;1444;49.166;7.312;2023-03-29T07:09:47;9.60;99.50
2873;DHT22;1444;49.166;7.312;2023-03-29T07:12:19;9.70;99.80
2873;DHT22;1444;49.166;7.312;2023-03-29T07:14:46;9.70;99.10
2873;DHT22;1444;49.166;7.312;2023-03-29T07:17:13;9.80;99.30
2873;DHT22;1444;49.166;7.312;2023-03-29T07:19:42;9.40;98.80
2873;DHT22;1444;49.166;7.312;2023-03-29T07:22:09;9.70;98.60
2873;DHT22;1444;49.166;7.312;2023-03-29T07:24:36;9.80;99.10
2873;DHT22;1444;49.166;7.312;2023-03-29T07:27:02;9.90;98.60
2873;DHT22;1444;49.166;7.312;2023-03-29T07:34:23;10.00;97.80
2873;DHT22;1444;49.166;7.312;2023-03-29T07:36:51;10.10;98.00
2873;DHT22;1444;49.166;7.312;2023-03-29T07:39:19;10.20;98.00
2873;DHT22;1444;49.166;7.312;2023-03-29T07:41:46;10.30;98.10
2873;DHT22;1444;49.166;7.312;2023-03-29T07:44:13;10.30;97.60
2873;DHT22;1444;49.166;7.312;2023-03-29T07:46:42;10.40;98.40
2873;DHT22;1444;49.166;7.312;2023-03-29T07:49:09;10.50;97.20
2873;DHT22;1444;49.166;7.312;2023-03-29T07:51:36;10.60;97.40
2873;DHT22;1444;49.166;7.312;2023-03-29T07:54:04;10.50;96.70
2873;DHT22;1444;49.166;7.312;2023-03-29T07:56:30;10.60;97.90
2873;DHT22;1444;49.166;7.312;2023-03-29T07:58:57;10.70;96.90
2873;DHT22;1444;49.166;7.312;2023-03-29T08:01:24;10.70;96.40
2873;DHT22;1444;49.166;7.312;2023-03-29T08:03:51;10.90;97.00
2873;DHT22;1444;49.166;7.312;2023-03-29T08:06:17;11.00;97.10
2873;DHT22;1444;49.166;7.312;2023-03-29T08:08:44;11.00;96.70
2873;DHT22;1444;49.166;7.312;2023-03-29T08:11:12;11.20;97.70
2873;DHT22;1444;49.166;7.312;2023-03-29T08:13:39;11.20;96.20
2873;DHT22;1444;49.166;7.312;2023-03-29T08:16:07;11.20;95.30
2873;DHT22;1444;49.166;7.312;2023-03-29T08:18:34;11.50;96.70
2873;DHT22;1444;49.166;7.312;2023-03-29T08:21:01;11.50;95.80
2873;DHT22;1444;49.166;7.312;2023-03-29T08:23:27;11.60;95.60
2873;DHT22;1444;49.166;7.312;2023-03-29T08:25:54;11.70;94.20
2873;DHT22;1444;49.166;7.312;2023-03-29T08:28:22;11.80;94.50
2873;DHT22;1444;49.166;7.312;2023-03-29T08:30:49;11.80;94.30
2873;DHT22;1444;49.166;7.312;2023-03-29T08:33:16;11.80;95.30
2873;DHT22;1444;49.166;7.312;2023-03-29T08:35:42;11.90;94.20
2873;DHT22;1444;49.166;7.312;2023-03-29T08:38:09;12.00;94.50
2873;DHT22;1444;49.166;7.312;2023-03-29T08:40:37;12.10;94.90
2873;DHT22;1444;49.166;7.312;2023-03-29T08:43:38;12.20;94.60
2873;DHT22;1444;49.166;7.312;2023-03-29T08:46:19;12.30;94.20
2873;DHT22;1444;49.166;7.312;2023-03-29T08:48:51;12.40;93.70
2873;DHT22;1444;49.166;7.312;2023-03-29T08:51:24;12.30;93.40
2873;DHT22;1444;49.166;7.312;2023-03-29T08:53:54;12.70;94.10
2873;DHT22;1444;49.166;7.312;2023-03-29T08:56:26;12.40;93.50
2873;DHT22;1444;49.166;7.312;2023-03-29T08:58:56;12.60;94.20
2873;DHT22;1444;49.166;7.312;2023-03-29T09:03:58;12.70;93.20
2873;DHT22;1444;49.166;7.312;2023-03-29T09:06:27;12.80;92.60
2873;DHT22;1444;49.166;7.312;2023-03-29T09:08:54;12.80;94.70
2873;DHT22;1444;49.166;7.312;2023-03-29T09:11:34;12.90;93.60
2873;DHT22;1444;49.166;7.312;2023-03-29T09:14:22;13.00;93.40
2873;DHT22;1444;49.166;7.312;2023-03-29T09:16:58;13.10;93.60
2873;DHT22;1444;49.166;7.312;2023-03-29T09:19:33;13.30;93.10
2873;DHT22;1444;49.166;7.312;2023-03-29T09:22:08;13.40;92.90
2873;DHT22;1444;49.166;7.312;2023-03-29T09:24:50;13.50;92.50
2873;DHT22;1444;49.166;7.312;2023-03-29T09:27:22;13.40;92.40
2873;DHT22;1444;49.166;7.312;2023-03-29T09:30:03;13.30;92.40
2873;DHT22;1444;49.166;7.312;2023-03-29T09:32:40;13.20;92.00
2873;DHT22;1444;49.166;7.312;2023-03-29T09:35:13;13.30;92.60
2873;DHT22;1444;49.166;7.312;2023-03-29T09:37:45;13.30;92.30
2873;DHT22;1444;49.166;7.312;2023-03-29T09:42:42;13.20;91.60
2873;DHT22;1444;49.166;7.312;2023-03-29T09:45:11;13.20;91.90
2873;DHT22;1444;49.166;7.312;2023-03-29T09:47:41;13.30;91.70
2873;DHT22;1444;49.166;7.312;2023-03-29T09:50:13;13.20;91.60
2873;DHT22;1444;49.166;7.312;2023-03-29T09:52:41;13.30;92.20
2873;DHT22;1444;49.166;7.312;2023-03-29T09:55:12;13.40;92.40
2873;DHT22;1444;49.166;7.312;2023-03-29T09:57:39;13.40;92.50
2873;DHT22;1444;49.166;7.312;2023-03-29T10:00:07;13.30;91.70
2873;DHT22;1444;49.166;7.312;2023-03-29T10:02:36;13.40;92.40
2873;DHT22;1444;49.166;7.312;2023-03-29T10:05:04;13.50;93.00
2873;DHT22;1444;49.166;7.312;2023-03-29T10:07:38;13.70;92.90
2873;DHT22;1444;49.166;7.312;2023-03-29T10:10:13;13.70;91.80
2873;DHT22;1444;49.166;7.312;2023-03-29T10:12:46;13.70;91.50
2873;DHT22;1444;49.166;7.312;2023-03-29T10:15:16;13.80;92.80
2873;DHT22;1444;49.166;7.312;2023-03-29T10:17:44;13.80;92.50
2873;DHT22;1444;49.166;7.312;2023-03-29T10:20:14;13.80;92.00
2873;DHT22;1444;49.166;7.312;2023-03-29T10:22:46;13.70;91.70
2873;DHT22;1444;49.166;7.312;2023-03-29T10:25:14;13.70;92.00
2873;DHT22;1444;49.166;7.312;2023-03-29T10:27:44;13.70;91.80
2873;DHT22;1444;49.166;7.312;2023-03-29T10:30:20;13.70;92.20
2873;DHT22;1444;49.166;7.312;2023-03-29T10:32:54;13.90;92.40
2873;DHT22;1444;49.166;7.312;2023-03-29T10:35:26;13.90;92.20
2873;DHT22;1444;49.166;7.312;2023-03-29T10:37:56;14.00;92.30
2873;DHT22;1444;49.166;7.312;2023-03-29T10:40:26;14.10;92.90
2873;DHT22;1444;49.166;7.312;2023-03-29T10:42:57;14.20;91.70
2873;DHT22;1444;49.166;7.312;2023-03-29T10:45:27;14.30;93.10
2873;DHT22;1444;49.166;7.312;2023-03-29T10:47:56;14.40;92.40
2873;DHT22;1444;49.166;7.312;2023-03-29T10:50:23;14.50;91.80
2873;DHT22;1444;49.166;7.312;2023-03-29T10:52:51;14.70;92.60
2873;DHT22;1444;49.166;7.312;2023-03-29T10:55:18;14.80;92.10
2873;DHT22;1444;49.166;7.312;2023-03-29T10:57:54;14.90;91.90
2873;DHT22;1444;49.166;7.312;2023-03-29T11:00:29;14.90;92.30
2873;DHT22;1444;49.166;7.312;2023-03-29T11:03:21;14.90;91.60
2873;DHT22;1444;49.166;7.312;2023-03-29T11:05:56;14.90;91.00
2873;DHT22;1444;49.166;7.312;2023-03-29T11:08:40;14.90;92.00
2873;DHT22;1444;49.166;7.312;2023-03-29T11:11:18;15.10;92.70
2873;DHT22;1444;49.166;7.312;2023-03-29T11:13:53;15.30;92.20
2873;DHT22;1444;49.166;7.312;2023-03-29T11:16:30;15.40;92.00
2873;DHT22;1444;49.166;7.312;2023-03-29T11:24:46;15.80;92.20
2873;DHT22;1444;49.166;7.312;2023-03-29T11:27:23;15.90;91.50
2873;DHT22;1444;49.166;7.312;2023-03-29T11:29:59;16.00;91.20
2873;DHT22;1444;49.166;7.312;2023-03-29T11:32:35;16.10;91.80
2873;DHT22;1444;49.166;7.312;2023-03-29T11:38:12;15.80;91.50
2873;DHT22;1444;49.166;7.312;2023-03-29T11:40:49;15.70;91.50
2873;DHT22;1444;49.166;7.312;2023-03-29T11:43:23;15.90;93.20
2873;DHT22;1444;49.166;7.312;2023-03-29T11:45:55;16.00;93.70
2873;DHT22;1444;49.166;7.312;2023-03-29T11:48:28;15.80;91.80
2873;DHT22;1444;49.166;7.312;2023-03-29T11:51:02;15.80;92.30
2873;DHT22;1444;49.166;7.312;2023-03-29T11:56:07;15.30;91.90
2873;DHT22;1444;49.166;7.312;2023-03-29T11:58:39;15.10;92.20
2873;DHT22;1444;49.166;7.312;2023-03-29T12:01:10;14.80;92.40
2873;DHT22;1444;49.166;7.312;2023-03-29T12:03:41;14.70;92.30
2873;DHT22;1444;49.166;7.312;2023-03-29T12:06:14;14.80;92.90
2873;DHT22;1444;49.166;7.312;2023-03-29T12:08:45;15.00;94.00
2873;DHT22;1444;49.166;7.312;2023-03-29T12:11:17;16.50;95.80
2873;DHT22;1444;49.166;7.312;2023-03-29T12:13:49;15.10;94.50
2873;DHT22;1444;49.166;7.312;2023-03-29T12:16:20;15.20;96.60
2873;DHT22;1444;49.166;7.312;2023-03-29T12:18:49;15.20;94.70
2873;DHT22;1444;49.166;7.312;2023-03-29T12:21:21;15.20;93.90
2873;DHT22;1444;49.166;7.312;2023-03-29T12:23:49;15.10;95.00
2873;DHT22;1444;49.166;7.312;2023-03-29T12:26:34;15.10;93.70
2873;DHT22;1444;49.166;7.312;2023-03-29T12:29:10;15.10;93.10
2873;DHT22;1444;49.166;7.312;2023-03-29T12:31:45;15.00;94.70
2873;DHT22;1444;49.166;7.312;2023-03-29T12:34:35;14.80;93.30
2873;DHT22;1444;49.166;7.312;2023-03-29T12:37:26;14.70;93.00
2873;DHT22;1444;49.166;7.312;2023-03-29T12:40:08;14.60;93.10
2873;DHT22;1444;49.166;7.312;2023-03-29T12:42:44;14.60;93.00
2873;DHT22;1444;49.166;7.312;2023-03-29T12:45:16;14.50;93.10
2873;DHT22;1444;49.166;7.312;2023-03-29T12:47:45;14.50;92.90
2873;DHT22;1444;49.166;7.312;2023-03-29T12:50:24;14.50;93.60
2873;DHT22;1444;49.166;7.312;2023-03-29T12:53:01;14.50;93.70
2873;DHT22;1444;49.166;7.312;2023-03-29T12:55:31;14.70;94.80
2873;DHT22;1444;49.166;7.312;2023-03-29T12:58:03;15.10;94.30
2873;DHT22;1444;49.166;7.312;2023-03-29T13:00:33;15.40;94.00
2873;DHT22;1444;49.166;7.312;2023-03-29T13:05:57;15.50;93.90
2873;DHT22;1444;49.166;7.312;2023-03-29T13:10:58;16.00;93.10
2873;DHT22;1444;49.166;7.312;2023-03-29T13:13:27;16.10;93.30
2873;DHT22;1444;49.166;7.312;2023-03-29T13:16:06;16.10;92.80
2873;DHT22;1444;49.166;7.312;2023-03-29T13:18:45;16.10;92.60
2873;DHT22;1444;49.166;7.312;2023-03-29T13:21:19;16.00;92.60
2873;DHT22;1444;49.166;7.312;2023-03-29T13:23:59;16.10;91.90
2873;DHT22;1444;49.166;7.312;2023-03-29T13:26:42;16.20;92.40
2873;DHT22;1444;49.166;7.312;2023-03-29T13:29:22;16.30;91.20
2873;DHT22;1444;49.166;7.312;2023-03-29T13:31:59;16.50;92.50
2873;DHT22;1444;49.166;7.312;2023-03-29T13:34:35;16.50;90.90
2873;DHT22;1444;49.166;7.312;2023-03-29T13:37:12;16.40;90.10
2873;DHT22;1444;49.166;7.312;2023-03-29T13:39:49;16.30;91.10
2873;DHT22;1444;49.166;7.312;2023-03-29T13:42:23;16.30;91.20
2873;DHT22;1444;49.166;7.312;2023-03-29T13:44:50;16.40;91.50
2873;DHT22;1444;49.166;7.312;2023-03-29T13:47:36;16.70;91.10
2873;DHT22;1444;49.166;7.312;2023-03-29T13:50:11;16.90;91.80
2873;DHT22;1444;49.166;7.312;2023-03-29T13:52:43;17.10;92.40
2873;DHT22;1444;49.166;7.312;2023-03-29T13:55:18;17.30;92.20
2873;DHT22;1444;49.166;7.312;2023-03-29T13:57:51;17.50;91.60
2873;DHT22;1444;49.166;7.312;2023-03-29T14:00:22;17.70;91.50
2873;DHT22;1444;49.166;7.312;2023-03-29T14:02:52;17.80;90.40
2873;DHT22;1444;49.166;7.312;2023-03-29T14:05:24;17.90;90.20
2873;DHT22;1444;49.166;7.312;2023-03-29T14:07:53;18.00;90.40
2873;DHT22;1444;49.166;7.312;2023-03-29T14:10:33;18.20;89.20
2873;DHT22;1444;49.166;7.312;2023-03-29T14:13:02;18.40;89.00
2873;DHT22;1444;49.166;7.312;2023-03-29T14:15:45;18.70;91.00
2873;DHT22;1444;49.166;7.312;2023-03-29T14:18:17;18.90;91.00
2873;DHT22;1444;49.166;7.312;2023-03-29T14:20:46;19.30;88.80
2873;DHT22;1444;49.166;7.312;2023-03-29T14:23:17;19.30;90.00
2873;DHT22;1444;49.166;7.312;2023-03-29T14:25:46;19.20;88.10
2873;DHT22;1444;49.166;7.312;2023-03-29T14:28:21;19.30;89.20
2873;DHT22;1444;49.166;7.312;2023-03-29T14:30:48;19.20;87.90
2873;DHT22;1444;49.166;7.312;2023-03-29T14:33:23;18.80;87.30
2873;DHT22;1444;49.166;7.312;2023-03-29T14:35:52;18.80;90.30
2873;DHT22;1444;49.166;7.312;2023-03-29T14:38:19;18.60;90.70
2873;DHT22;1444;49.166;7.312;2023-03-29T14:40:47;18.60;90.30
2873;DHT22;1444;49.166;7.312;2023-03-29T14:43:18;18.60;90.80
2873;DHT22;1444;49.166;7.312;2023-03-29T14:45:47;18.40;90.20
2873;DHT22;1444;49.166;7.312;2023-03-29T14:48:14;18.30;91.10
2873;DHT22;1444;49.166;7.312;2023-03-29T14:50:43;18.40;91.50
2873;DHT22;1444;49.166;7.312;2023-03-29T14:53:15;18.40;91.30
2873;DHT22;1444;49.166;7.312;2023-03-29T14:55:44;17.10;91.00
2873;DHT22;1444;49.166;7.312;2023-03-29T14:58:20;18.60;92.10
2873;DHT22;1444;49.166;7.312;2023-03-29T15:00:48;18.80;91.50
2873;DHT22;1444;49.166;7.312;2023-03-29T15:03:16;18.90;91.90
2873;DHT22;1444;49.166;7.312;2023-03-29T15:05:47;18.60;90.90
2873;DHT22;1444;49.166;7.312;2023-03-29T15:08:17;18.50;90.40
2873;DHT22;1444;49.166;7.312;2023-03-29T15:10:45;18.50;90.20
2873;DHT22;1444;49.166;7.312;2023-03-29T15:13:17;18.40;90.00
2873;DHT22;1444;49.166;7.312;2023-03-29T15:15:45;16.80;89.00
2873;DHT22;1444;49.166;7.312;2023-03-29T15:18:14;18.30;89.40
2873;DHT22;1444;49.166;7.312;2023-03-29T15:20:41;18.30;90.10
2873;DHT22;1444;49.166;7.312;2023-03-29T15:23:20;18.30;88.40
2873;DHT22;1444;49.166;7.312;2023-03-29T15:25:51;18.30;89.80
2873;DHT22;1444;49.166;7.312;2023-03-29T15:28:26;18.30;88.80
2873;DHT22;1444;49.166;7.312;2023-03-29T15:33:23;18.40;86.90
2873;DHT22;1444;49.166;7.312;2023-03-29T15:35:56;18.40;84.40
2873;DHT22;1444;49.166;7.312;2023-03-29T15:38:23;18.30;83.90
2873;DHT22;1444;49.166;7.312;2023-03-29T15:40:50;18.40;85.50
2873;DHT22;1444;49.166;7.312;2023-03-29T15:43:18;18.30;83.50
2873;DHT22;1444;49.166;7.312;2023-03-29T15:45:47;18.40;86.10
2873;DHT22;1444;49.166;7.312;2023-03-29T15:48:15;18.30;86.50
2873;DHT22;1444;49.166;7.312;2023-03-29T15:50:42;18.40;87.00
2873;DHT22;1444;49.166;7.312;2023-03-29T15:53:09;18.40;86.90
2873;DHT22;1444;49.166;7.312;2023-03-29T15:55:39;18.30;87.80
2873;DHT22;1444;49.166;7.312;2023-03-29T15:58:08;18.30;87.60
2873;DHT22;1444;49.166;7.312;2023-03-29T16:00:37;18.20;85.70
2873;DHT22;1444;49.166;7.312;2023-03-29T16:03:10;18.20;84.70
2873;DHT22;1444;49.166;7.312;2023-03-29T16:05:37;17.70;86.70
2873;DHT22;1444;49.166;7.312;2023-03-29T16:08:04;18.20;87.10
2873;DHT22;1444;49.166;7.312;2023-03-29T16:10:30;18.20;85.30
2873;DHT22;1444;49.166;7.312;2023-03-29T16:12:57;18.30;85.30
2873;DHT22;1444;49.166;7.312;2023-03-29T16:15:24;18.30;87.00
2873;DHT22;1444;49.166;7.312;2023-03-29T16:17:52;18.30;87.20
2873;DHT22;1444;49.166;7.312;2023-03-29T16:20:20;18.30;86.70
2873;DHT22;1444;49.166;7.312;2023-03-29T16:22:47;18.40;88.20
2873;DHT22;1444;49.166;7.312;2023-03-29T16:25:16;18.40;87.90
2873;DHT22;1444;49.166;7.312;2023-03-29T16:27:43;18.40;86.70
2873;DHT22;1444;49.166;7.312;2023-03-29T16:30:12;18.50;87.00
2873;DHT22;1444;49.166;7.312;2023-03-29T16:32:38;18.30;87.50
2873;DHT22;1444;49.166;7.312;2023-03-29T16:35:11;18.20;87.30
2873;DHT22;1444;49.166;7.312;2023-03-29T16:37:40;18.10;88.00
2873;DHT22;1444;49.166;7.312;2023-03-29T16:40:08;18.00;88.50
2873;DHT22;1444;49.166;7.312;2023-03-29T16:42:37;18.10;89.20
2873;DHT22;1444;49.166;7.312;2023-03-29T16:45:04;18.00;89.40
2873;DHT22;1444;49.166;7.312;2023-03-29T16:47:31;17.90;90.00
2873;DHT22;1444;49.166;7.312;2023-03-29T16:49:58;17.80;90.10
2873;DHT22;1444;49.166;7.312;2023-03-29T16:52:25;17.80;90.40
2873;DHT22;1444;49.166;7.312;2023-03-29T16:54:53;17.70;90.50
2873;DHT22;1444;49.166;7.312;2023-03-29T16:57:19;17.60;90.30
2873;DHT22;1444;49.166;7.312;2023-03-29T16:59:46;17.60;90.60
2873;DHT22;1444;49.166;7.312;2023-03-29T17:02:13;17.60;90.80